createdAt,value
2023-01-09T00:00:57.037Z,5.90
2023-01-09T00:03:24.968Z,5.60
2023-01-09T00:05:52.247Z,6.20
2023-01-09T00:08:19.546Z,5.50
2023-01-09T00:10:49.629Z,4.30
2023-01-09T00:13:18.383Z,4.40
2023-01-09T00:15:48.948Z,5.00
2023-01-09T00:18:16.144Z,6.90
2023-01-09T00:20:43.435Z,5.10
2023-01-09T00:23:28.545Z,4.00
2023-01-09T00:26:06.327Z,4.00
2023-01-09T00:28:34.216Z,4.10
2023-01-09T00:31:01.798Z,4.60
2023-01-09T00:33:31.752Z,3.90
2023-01-09T00:35:58.587Z,4.60
2023-01-09T00:38:25.419Z,3.80
2023-01-09T00:40:52.538Z,5.00
2023-01-09T00:43:19.923Z,4.70
2023-01-09T00:45:46.799Z,5.40
2023-01-09T00:48:16.956Z,5.50
2023-01-09T00:53:15.539Z,3.20
2023-01-09T00:55:42.345Z,4.00
2023-01-09T00:58:09.604Z,4.50
2023-01-09T01:00:36.528Z,3.80
2023-01-09T01:03:04.318Z,4.10
2023-01-09T01:05:50.388Z,4.00
2023-01-09T01:08:18.592Z,3.70
2023-01-09T01:10:45.836Z,3.90
2023-01-09T01:13:13.010Z,3.30
2023-01-09T01:15:41.472Z,4.00
2023-01-09T01:18:09.892Z,3.70
2023-01-09T01:20:36.721Z,4.70
2023-01-09T01:23:04.307Z,4.70
2023-01-09T01:25:31.255Z,4.20
2023-01-09T01:27:58.570Z,5.00
2023-01-09T01:30:27.717Z,3.60
2023-01-09T01:32:54.614Z,3.60
2023-01-09T01:35:22.593Z,3.60
2023-01-09T01:37:50.020Z,4.00
2023-01-09T01:40:17.019Z,3.40
2023-01-09T01:42:51.725Z,3.90
2023-01-09T01:45:20.820Z,3.20
2023-01-09T01:48:03.844Z,4.00
2023-01-09T01:50:37.095Z,6.20
2023-01-09T01:53:07.078Z,4.70
2023-01-09T01:55:35.199Z,4.20
2023-01-09T01:58:03.299Z,4.40
2023-01-09T02:00:34.035Z,4.90
2023-01-09T02:03:01.297Z,5.10
2023-01-09T02:05:28.499Z,4.50
2023-01-09T02:07:55.495Z,4.00
2023-01-09T02:10:25.191Z,4.00
2023-01-09T02:12:52.147Z,3.80
2023-01-09T02:15:19.074Z,3.70
2023-01-09T02:18:08.177Z,3.90
2023-01-09T02:20:38.809Z,4.50
2023-01-09T02:23:48.481Z,3.50
2023-01-09T02:26:27.441Z,3.30
2023-01-09T02:29:09.649Z,3.30
2023-01-09T02:31:40.799Z,3.10
2023-01-09T02:34:07.703Z,3.70
2023-01-09T02:36:48.291Z,2.90
2023-01-09T02:39:27.919Z,3.20
2023-01-09T02:42:21.370Z,4.00
2023-01-09T02:44:48.277Z,3.00
2023-01-09T02:47:15.047Z,3.30
2023-01-09T02:49:52.183Z,2.70
2023-01-09T02:52:41.953Z,2.90
2023-01-09T02:55:50.967Z,3.10
2023-01-09T02:58:40.659Z,2.80
2023-01-09T03:03:35.987Z,2.20
2023-01-09T03:06:07.513Z,2.80
2023-01-09T03:08:42.246Z,2.50
2023-01-09T03:11:09.414Z,3.50
2023-01-09T03:13:47.334Z,2.80
2023-01-09T03:16:17.516Z,2.80
2023-01-09T03:18:44.310Z,2.50
2023-01-09T03:21:11.212Z,3.00
2023-01-09T03:23:55.414Z,3.80
2023-01-09T03:26:23.193Z,3.40
2023-01-09T03:28:50.263Z,3.50
2023-01-09T03:31:17.475Z,2.80
2023-01-09T03:33:45.079Z,2.60
2023-01-09T03:36:12.758Z,2.50
2023-01-09T03:38:39.508Z,2.70
2023-01-09T03:41:06.824Z,3.50
2023-01-09T03:43:33.832Z,4.40
2023-01-09T03:46:00.737Z,4.50
2023-01-09T03:48:28.255Z,4.10
2023-01-09T03:50:55.853Z,3.10
2023-01-09T03:53:25.725Z,2.50
2023-01-09T03:55:53.891Z,3.00
2023-01-09T03:58:21.371Z,2.50
2023-01-09T04:00:52.440Z,2.60
2023-01-09T04:03:20.793Z,2.30
2023-01-09T04:05:48.449Z,2.50
2023-01-09T04:08:15.696Z,2.10
2023-01-09T04:10:46.933Z,2.20
2023-01-09T04:13:30.582Z,2.40
2023-01-09T04:15:57.452Z,2.30
2023-01-09T04:18:24.375Z,2.10
2023-01-09T04:20:51.297Z,1.90
2023-01-09T04:23:18.416Z,2.20
2023-01-09T04:25:46.065Z,2.40
2023-01-09T04:28:13.476Z,2.40
2023-01-09T04:30:41.170Z,3.10
2023-01-09T04:33:08.148Z,3.90
2023-01-09T04:35:35.968Z,3.30
2023-01-09T04:38:03.152Z,2.40
2023-01-09T04:40:30.217Z,3.10
2023-01-09T04:43:00.040Z,2.90
2023-01-09T04:45:27.611Z,2.60
2023-01-09T04:47:54.440Z,2.70
2023-01-09T04:50:22.475Z,2.70
2023-01-09T04:52:49.524Z,2.40
2023-01-09T04:55:16.996Z,2.70
2023-01-09T04:57:43.865Z,2.40
2023-01-09T05:00:12.540Z,2.40
2023-01-09T05:02:40.632Z,2.60
2023-01-09T05:05:11.268Z,2.40
2023-01-09T05:07:39.867Z,2.30
2023-01-09T05:10:07.682Z,2.50
2023-01-09T05:12:37.491Z,2.80
2023-01-09T05:15:05.383Z,2.80
2023-01-09T05:17:34.294Z,2.80
2023-01-09T05:20:01.726Z,2.30
2023-01-09T05:22:28.868Z,2.50
2023-01-09T05:24:55.816Z,2.40
2023-01-09T05:27:22.673Z,2.40
2023-01-09T05:29:49.943Z,2.50
2023-01-09T05:32:16.871Z,1.90
2023-01-09T05:34:43.947Z,3.80
2023-01-09T05:37:11.078Z,3.60
2023-01-09T05:39:38.334Z,3.50
2023-01-09T05:42:05.237Z,3.30
2023-01-09T05:44:34.297Z,3.60
2023-01-09T05:47:02.835Z,2.90
2023-01-09T05:49:29.979Z,3.20
2023-01-09T05:51:56.875Z,2.40
2023-01-09T05:54:23.930Z,2.70
2023-01-09T05:56:50.900Z,3.00
2023-01-09T05:59:17.944Z,3.20
2023-01-09T06:01:44.868Z,2.80
2023-01-09T06:04:11.935Z,2.80
2023-01-09T06:06:40.232Z,3.10
2023-01-09T06:09:07.481Z,3.40
2023-01-09T06:11:35.832Z,2.70
2023-01-09T06:14:03.494Z,2.60
2023-01-09T06:16:30.600Z,2.50
2023-01-09T06:18:57.587Z,3.20
2023-01-09T06:21:24.873Z,2.60
2023-01-09T06:23:52.103Z,2.40
2023-01-09T06:26:20.264Z,2.50
2023-01-09T06:28:47.531Z,3.20
2023-01-09T06:31:15.019Z,4.50
2023-01-09T06:33:42.217Z,3.50
2023-01-09T06:36:09.393Z,2.70
2023-01-09T06:38:37.253Z,2.60
2023-01-09T06:41:04.436Z,3.50
2023-01-09T06:43:31.944Z,3.50
2023-01-09T06:46:00.767Z,2.50
2023-01-09T06:48:27.592Z,2.50
2023-01-09T06:50:55.051Z,2.60
2023-01-09T06:53:21.976Z,3.00
2023-01-09T06:55:49.575Z,3.30
2023-01-09T06:58:16.780Z,2.60
2023-01-09T07:00:43.595Z,2.90
2023-01-09T07:03:11.604Z,2.80
2023-01-09T07:05:42.652Z,3.90
2023-01-09T07:08:09.633Z,2.90
2023-01-09T07:10:37.951Z,2.90
2023-01-09T07:13:05.451Z,2.90
2023-01-09T07:15:32.446Z,2.60
2023-01-09T07:17:59.358Z,2.60
2023-01-09T07:20:26.271Z,3.80
2023-01-09T07:22:54.425Z,4.20
2023-01-09T07:25:21.513Z,3.20
2023-01-09T07:27:49.191Z,3.00
2023-01-09T07:30:16.600Z,3.10
2023-01-09T07:32:43.734Z,3.40
2023-01-09T07:35:10.972Z,2.70
2023-01-09T07:37:38.055Z,2.90
2023-01-09T07:40:05.515Z,2.80
2023-01-09T07:42:32.928Z,3.20
2023-01-09T07:44:59.943Z,3.10
2023-01-09T07:47:26.784Z,3.50
2023-01-09T07:49:53.867Z,3.50
2023-01-09T07:52:20.723Z,3.30
2023-01-09T07:54:47.683Z,2.80
2023-01-09T07:57:14.569Z,2.10
2023-01-09T07:59:42.704Z,3.10
2023-01-09T08:02:09.854Z,2.80
2023-01-09T08:04:37.303Z,2.80
2023-01-09T08:07:04.136Z,2.90
2023-01-09T08:09:31.372Z,2.80
2023-01-09T08:11:59.325Z,4.00
2023-01-09T08:14:26.575Z,4.00
2023-01-09T08:16:53.527Z,3.90
2023-01-09T08:19:20.640Z,2.80
2023-01-09T08:21:47.548Z,3.00
2023-01-09T08:24:15.160Z,3.20
2023-01-09T08:26:42.868Z,2.80
2023-01-09T08:29:11.073Z,2.80
2023-01-09T08:31:37.942Z,2.10
2023-01-09T08:34:05.114Z,2.70
2023-01-09T08:36:32.303Z,2.90
2023-01-09T08:38:59.196Z,2.90
2023-01-09T08:41:44.864Z,2.60
2023-01-09T08:44:30.562Z,2.80
2023-01-09T08:47:07.103Z,2.70
2023-01-09T08:49:35.230Z,2.30
2023-01-09T08:52:02.165Z,2.50
2023-01-09T08:54:31.403Z,2.70
2023-01-09T08:56:58.595Z,2.90
2023-01-09T08:59:25.478Z,3.50
2023-01-09T09:01:53.257Z,3.70
2023-01-09T09:04:20.450Z,3.40
2023-01-09T09:06:47.472Z,3.50
2023-01-09T09:09:15.962Z,4.80
2023-01-09T09:11:43.705Z,3.60
2023-01-09T09:14:29.485Z,3.60
2023-01-09T09:16:56.631Z,3.50
2023-01-09T09:19:23.972Z,2.60
2023-01-09T09:21:51.327Z,4.30
2023-01-09T09:24:18.570Z,3.20
2023-01-09T09:26:47.110Z,3.20
2023-01-09T09:29:14.331Z,3.30
2023-01-09T09:31:41.203Z,3.30
2023-01-09T09:34:08.353Z,3.30
2023-01-09T09:36:36.136Z,2.90
2023-01-09T09:39:03.534Z,3.50
2023-01-09T09:42:15.847Z,4.20
2023-01-09T09:44:54.865Z,4.10
2023-01-09T09:47:52.036Z,2.70
2023-01-09T09:50:22.758Z,2.80
2023-01-09T09:52:54.998Z,3.30
2023-01-09T09:55:25.536Z,3.20
2023-01-09T09:57:52.708Z,2.70
2023-01-09T10:15:49.310Z,4.10
2023-01-09T10:18:49.041Z,3.70
2023-01-09T10:21:31.351Z,2.90
2023-01-09T10:24:14.395Z,3.60
2023-01-09T10:26:48.771Z,4.20
2023-01-09T10:29:31.640Z,3.00
2023-01-09T10:32:33.695Z,3.00
2023-01-09T10:37:32.380Z,1.80
2023-01-09T10:40:14.743Z,2.60
2023-01-09T10:42:44.881Z,2.60
2023-01-09T10:45:21.207Z,3.10
2023-01-09T10:47:48.162Z,3.50
2023-01-09T10:50:20.672Z,3.80
2023-01-09T10:52:51.837Z,3.20
2023-01-09T10:55:44.805Z,3.00
2023-01-09T10:58:19.765Z,3.20
2023-01-09T11:00:47.741Z,3.30
2023-01-09T11:03:25.415Z,2.70
2023-01-09T11:05:53.958Z,3.00
2023-01-09T11:08:25.633Z,3.50
2023-01-09T11:10:57.059Z,4.20
2023-01-09T11:13:34.449Z,3.50
2023-01-09T11:16:18.074Z,2.80
2023-01-09T11:18:50.135Z,3.10
2023-01-09T11:21:40.804Z,2.80
2023-01-09T11:24:21.427Z,3.20
2023-01-09T11:26:52.822Z,2.60
2023-01-09T11:29:26.600Z,3.10
2023-01-09T11:31:55.202Z,2.90
2023-01-09T11:34:23.862Z,2.50
2023-01-09T11:36:51.975Z,2.60
2023-01-09T11:39:26.160Z,2.30
2023-01-09T11:41:58.079Z,2.50
2023-01-09T11:44:25.192Z,2.60
2023-01-09T11:46:52.717Z,4.10
2023-01-09T11:49:23.639Z,3.30
2023-01-09T11:52:15.448Z,3.10
2023-01-09T11:55:03.128Z,4.10
2023-01-09T11:57:30.279Z,3.50
2023-01-09T12:00:01.409Z,2.90
2023-01-09T12:02:47.185Z,2.50
2023-01-09T12:05:27.922Z,2.60
2023-01-09T12:07:57.881Z,2.50
2023-01-09T12:10:31.195Z,2.80
2023-01-09T12:12:58.036Z,2.60
2023-01-09T12:16:03.585Z,2.70
2023-01-09T12:18:55.998Z,3.10
2023-01-09T12:21:36.999Z,4.00
2023-01-09T12:24:13.389Z,3.00
2023-01-09T12:29:42.487Z,2.50
2023-01-09T12:32:24.692Z,2.60
2023-01-09T12:34:53.698Z,3.30
2023-01-09T12:37:45.531Z,4.20
2023-01-09T12:40:12.567Z,3.50
2023-01-09T12:43:01.989Z,4.10
2023-01-09T12:45:36.257Z,3.10
2023-01-09T12:48:21.467Z,2.50
2023-01-09T12:50:57.795Z,3.40
2023-01-09T12:53:31.475Z,3.60
2023-01-09T12:56:08.284Z,4.30
2023-01-09T12:58:47.888Z,3.30
2023-01-09T13:01:18.304Z,4.00
2023-01-09T13:04:10.146Z,3.40
2023-01-09T13:06:38.083Z,4.30
2023-01-09T13:15:41.950Z,3.10
2023-01-09T13:18:13.039Z,3.40
2023-01-09T13:20:45.326Z,6.20
2023-01-09T13:23:21.414Z,4.60
2023-01-09T13:33:37.275Z,4.10
2023-01-09T13:36:04.472Z,5.00
2023-01-09T13:38:33.115Z,3.60
2023-01-09T13:41:32.004Z,4.00
2023-01-09T13:43:59.803Z,3.80
2023-01-09T13:46:54.315Z,5.00
2023-01-09T13:49:36.821Z,4.90
2023-01-09T13:52:33.305Z,5.10
2023-01-09T13:55:11.240Z,4.70
2023-01-09T13:57:40.089Z,3.90
2023-01-09T14:00:13.212Z,5.80
2023-01-09T14:02:50.259Z,5.30
2023-01-09T14:05:37.634Z,3.40
2023-01-09T14:08:11.521Z,3.90
2023-01-09T14:10:48.879Z,3.70
2023-01-09T14:13:38.454Z,4.00
2023-01-09T14:16:23.742Z,2.80
2023-01-09T14:19:06.340Z,4.20
2023-01-09T14:24:32.688Z,8.50
2023-01-09T14:27:00.803Z,6.30
2023-01-09T14:29:38.934Z,4.60
2023-01-09T14:32:21.371Z,4.00
2023-01-09T14:35:11.281Z,3.90
2023-01-09T14:37:40.710Z,3.90
2023-01-09T14:42:42.722Z,4.10
2023-01-09T14:45:19.616Z,4.40
2023-01-09T14:47:56.724Z,3.60
2023-01-09T14:50:34.355Z,4.20
2023-01-09T14:53:16.793Z,4.30
2023-01-09T14:55:53.879Z,4.70
2023-01-09T14:58:31.456Z,3.40
2023-01-09T15:01:05.393Z,3.90
2023-01-09T15:03:33.833Z,4.90
2023-01-09T15:06:01.164Z,4.70
2023-01-09T15:08:30.162Z,4.20
2023-01-09T15:10:58.160Z,3.50
2023-01-09T15:13:35.881Z,4.60
2023-01-09T15:16:05.428Z,3.90
2023-01-09T15:18:33.929Z,4.10
2023-01-09T15:21:02.357Z,2.80
2023-01-09T15:23:30.540Z,4.20
2023-01-09T15:26:12.315Z,3.20
2023-01-09T15:28:43.811Z,3.50
2023-01-09T15:31:16.130Z,3.30
2023-01-09T15:33:44.762Z,3.70
2023-01-09T15:36:20.176Z,3.40
2023-01-09T15:38:47.454Z,4.20
2023-01-09T15:41:44.403Z,4.10
2023-01-09T15:44:26.741Z,3.60
2023-01-09T15:46:57.318Z,4.00
2023-01-09T15:49:24.166Z,3.60
2023-01-09T15:51:51.071Z,3.70
2023-01-09T15:54:26.825Z,3.60
2023-01-09T15:56:53.623Z,4.60
2023-01-09T15:59:28.339Z,2.90
2023-01-09T16:02:21.394Z,3.70
2023-01-09T16:04:55.578Z,4.70
2023-01-09T16:07:22.589Z,4.10
2023-01-09T16:09:52.849Z,3.80
2023-01-09T16:12:25.294Z,3.90
2023-01-09T16:14:59.916Z,4.00
2023-01-09T16:17:27.807Z,3.90
2023-01-09T16:19:59.254Z,4.50
2023-01-09T16:22:27.882Z,5.00
2023-01-09T16:24:59.764Z,4.30
2023-01-09T16:27:32.207Z,4.40
2023-01-09T16:30:04.565Z,5.00
2023-01-09T16:32:35.207Z,5.30
2023-01-09T16:35:06.077Z,3.90
2023-01-09T16:37:34.367Z,5.00
2023-01-09T16:40:17.263Z,4.10
2023-01-09T16:43:08.602Z,6.30
2023-01-09T16:45:42.852Z,6.00
2023-01-09T16:48:20.910Z,4.30
2023-01-09T16:50:48.465Z,4.00
2023-01-09T16:53:22.662Z,4.90
2023-01-09T16:55:50.256Z,4.10
2023-01-09T16:58:24.037Z,5.00
2023-01-09T17:00:50.996Z,10.10
2023-01-09T17:03:19.322Z,5.80
2023-01-09T17:05:51.476Z,5.30
2023-01-09T17:08:29.185Z,5.00
2023-01-09T17:10:56.995Z,4.60
2023-01-09T17:13:25.020Z,4.60
2023-01-09T17:18:23.143Z,3.90
2023-01-09T17:20:54.696Z,3.50
2023-01-09T17:23:22.871Z,3.10
2023-01-09T17:26:09.164Z,3.40
2023-01-09T17:36:32.250Z,4.30
2023-01-09T17:38:59.481Z,4.40
2023-01-09T17:41:29.187Z,3.50
2023-01-09T17:43:56.782Z,2.80
2023-01-09T17:46:34.788Z,3.10
2023-01-09T17:49:02.209Z,2.90
2023-01-09T17:51:29.547Z,3.40
2023-01-09T22:21:32.198Z,3.00
2023-01-09T22:24:01.741Z,4.40
2023-01-09T22:26:29.362Z,4.60
2023-01-09T22:28:57.218Z,2.60
2023-01-09T22:31:32.838Z,2.40
2023-01-09T22:34:00.484Z,2.90
2023-01-09T22:36:28.545Z,5.60
2023-01-09T22:38:56.055Z,3.90
2023-01-09T22:41:23.820Z,2.30
2023-01-09T22:43:50.828Z,3.50
2023-01-09T22:46:17.891Z,3.90
2023-01-09T22:48:48.163Z,2.80
2023-01-09T22:51:17.214Z,3.10
2023-01-09T22:53:44.306Z,2.80
2023-01-09T22:56:19.398Z,2.80
2023-01-09T22:58:53.273Z,2.90
2023-01-09T23:01:20.965Z,3.90
2023-01-09T23:03:47.859Z,4.50
2023-01-09T23:06:16.960Z,3.60
2023-01-09T23:08:44.012Z,2.40
2023-01-09T23:11:13.686Z,2.80
2023-01-09T23:13:40.644Z,3.30
2023-01-09T23:16:07.763Z,2.60
2023-01-09T23:18:35.352Z,4.50
2023-01-09T23:21:03.725Z,5.50
2023-01-09T23:23:31.131Z,2.40
2023-01-09T23:26:00.174Z,2.60
2023-01-09T23:28:27.325Z,2.90
2023-01-09T23:30:54.221Z,2.80
2023-01-09T23:33:21.361Z,2.40
2023-01-09T23:35:50.683Z,2.10
2023-01-09T23:38:17.827Z,4.10
2023-01-09T23:40:44.675Z,2.80
2023-01-09T23:43:13.515Z,2.70
2023-01-09T23:45:41.515Z,1.80
